Sincere Salute — 7JNA — position and weather

sailwx.info

Track history (hours):
 
Tides and Currents Weather Stations Pressure Air Temp Water Temp Dewpoint Dewpoint Depression Visibility Wind Speed Wind Dir Waves Ship Positions

Sincere Salute

Last reported at 2017-Nov-19 13:38 UTC. Time now 2017-Nov-19 19:41 UTC.
Position S 27°42' E 153°48'.

Length 228 m; draft 13.2 m.

Type: Ship. MMSI: 432883000.

Date/timePositionNaut miles runAvg speedWind from/ knotsBaromVisibWave heightAir tempDewpointWater temp
2017-Nov-19 13:38S 27°42' E 153°48'2 9.4
2017-Nov-19 13:27S 27°44' E 153°48'4 9.1
2017-Nov-19 13:00S 27°48' E 153°48'4 9.0
2017-Nov-19 12:30S 27°52' E 153°48'5 9.0
2017-Nov-19 12:00S 27°57' E 153°48'5 9.1
2017-Nov-19 11:30S 28°01' E 153°48'5 9.3
2017-Nov-19 11:01S 28°06' E 153°48'5 9.5
2017-Nov-19 10:30S 28°11' E 153°47'5 9.4
2017-Nov-19 10:00S 28°16' E 153°47'5 9.3
2017-Nov-19 09:30S 28°20' E 153°47'5 9.2
2017-Nov-19 09:00S 28°25' E 153°47'5 9.3
2017-Nov-19 08:30S 28°30' E 153°47'4 9.1
2017-Nov-19 08:00S 28°34' E 153°47'237 8.9
2017-Nov-18 05:26S 32°25' E 152°45'7 8.5
2017-Nov-18 04:36S 32°31' E 152°41'1 8.3
2017-Nov-18 04:28S 32°32' E 152°40'4 8.6
2017-Nov-18 03:59S 32°34' E 152°36'5 9.6
2017-Nov-18 03:30S 32°37' E 152°32'510.7
2017-Nov-18 03:00S 32°40' E 152°27'611.2
2017-Nov-18 02:30S 32°44' E 152°22'611.1
2017-Nov-18 02:00S 32°47' E 152°16'510.9
2017-Nov-18 01:30S 32°50' E 152°11'510.7
2017-Nov-18 01:00S 32°53' E 152°05'510.4
2017-Nov-18 00:30S 32°54' E 151°59'510.6
2017-Nov-18 00:00S 32°56' E 151°53'4 7.4
2017-Nov-17 23:30S 32°55' E 151°49'2 4.5
2017-Nov-17 23:00S 32°55' E 151°46'2 0.1
2017-Nov-17 07:33S 32°53' E 151°45'0 0.0
2017-Nov-17 07:30S 32°53' E 151°45'0 0.0
2017-Nov-17 04:57S 32°53' E 151°45'1 1.9
2017-Nov-17 04:30S 32°54' E 151°46'2 3.9
2017-Nov-17 04:00S 32°55' E 151°48'4 7.9
2017-Nov-17 03:30S 32°57' E 151°51'3 5.8
2017-Nov-17 03:00S 32°60' E 151°54'2 4.7
2017-Nov-17 02:30S 33°01' E 151°56'2 3.7
2017-Nov-17 02:00S 33°00' E 151°58'1 1.7
2017-Nov-17 01:30S 32°60' E 151°59'2 3.0
2017-Nov-17 01:00S 32°58' E 151°59'5 9.7
2017-Nov-17 00:30S 32°55' E 152°04'612.7
2017-Nov-17 00:00S 32°53' E 152°11'5 9.2
2017-Nov-16 23:30S 32°50' E 152°15'5 9.7
2017-Nov-16 23:00S 32°48' E 152°20'510.1
2017-Nov-16 22:30S 32°45' E 152°25'611.1
2017-Nov-16 22:01S 32°41' E 152°30'611.6
2017-Nov-16 21:30S 32°37' E 152°35'713.8
2017-Nov-16 20:59S 32°32' E 152°41'813.3
2017-Nov-16 20:24S 32°25' E 152°46'24315.1
2017-Nov-16 04:20S 28°28' E 153°47'516.8
2017-Nov-16 04:00S 28°23' E 153°47'817.0
2017-Nov-16 03:30S 28°14' E 153°48'816.5
2017-Nov-16 03:00S 28°06' E 153°50'816.5
2017-Nov-16 02:30S 27°58' E 153°52'1016.6
2017-Nov-16 01:55S 27°48' E 153°53'716.6
2017-Nov-16 01:31S 27°42' E 153°54'  
Track history (hours):
 
Tides and Currents Weather Stations Pressure Air Temp Water Temp Dewpoint Dewpoint Depression Visibility Wind Speed Wind Dir Waves Ship Positions

Sincere Salute

Last reported at 2017-Nov-19 13:38 UTC. Time now 2017-Nov-19 19:41 UTC.
Position S 27°42' E 153°48'.

Length 228 m; draft 13.2 m.

Type: Ship. MMSI: 432883000.

Date/timePositionNaut miles runAvg speedWind from/ knotsBaromVisibWave heightAir tempDewpointWater temp
2017-Nov-19 13:38S 27°42' E 153°48'2 9.4
2017-Nov-19 13:27S 27°44' E 153°48'4 9.1
2017-Nov-19 13:00S 27°48' E 153°48'4 9.0
2017-Nov-19 12:30S 27°52' E 153°48'5 9.0
2017-Nov-19 12:00S 27°57' E 153°48'5 9.1
2017-Nov-19 11:30S 28°01' E 153°48'5 9.3
2017-Nov-19 11:01S 28°06' E 153°48'5 9.5
2017-Nov-19 10:30S 28°11' E 153°47'5 9.4
2017-Nov-19 10:00S 28°16' E 153°47'5 9.3
2017-Nov-19 09:30S 28°20' E 153°47'5 9.2
2017-Nov-19 09:00S 28°25' E 153°47'5 9.3
2017-Nov-19 08:30S 28°30' E 153°47'4 9.1
2017-Nov-19 08:00S 28°34' E 153°47'237 8.9
2017-Nov-18 05:26S 32°25' E 152°45'7 8.5
2017-Nov-18 04:36S 32°31' E 152°41'1 8.3
2017-Nov-18 04:28S 32°32' E 152°40'4 8.6
2017-Nov-18 03:59S 32°34' E 152°36'5 9.6
2017-Nov-18 03:30S 32°37' E 152°32'510.7
2017-Nov-18 03:00S 32°40' E 152°27'611.2
2017-Nov-18 02:30S 32°44' E 152°22'611.1
2017-Nov-18 02:00S 32°47' E 152°16'510.9
2017-Nov-18 01:30S 32°50' E 152°11'510.7
2017-Nov-18 01:00S 32°53' E 152°05'510.4
2017-Nov-18 00:30S 32°54' E 151°59'510.6
2017-Nov-18 00:00S 32°56' E 151°53'4 7.4
2017-Nov-17 23:30S 32°55' E 151°49'2 4.5
2017-Nov-17 23:00S 32°55' E 151°46'2 0.1
2017-Nov-17 07:33S 32°53' E 151°45'0 0.0
2017-Nov-17 07:30S 32°53' E 151°45'0 0.0
2017-Nov-17 04:57S 32°53' E 151°45'1 1.9
2017-Nov-17 04:30S 32°54' E 151°46'2 3.9
2017-Nov-17 04:00S 32°55' E 151°48'4 7.9
2017-Nov-17 03:30S 32°57' E 151°51'3 5.8
2017-Nov-17 03:00S 32°60' E 151°54'2 4.7
2017-Nov-17 02:30S 33°01' E 151°56'2 3.7
2017-Nov-17 02:00S 33°00' E 151°58'1 1.7
2017-Nov-17 01:30S 32°60' E 151°59'2 3.0
2017-Nov-17 01:00S 32°58' E 151°59'5 9.7
2017-Nov-17 00:30S 32°55' E 152°04'612.7
2017-Nov-17 00:00S 32°53' E 152°11'5 9.2
2017-Nov-16 23:30S 32°50' E 152°15'5 9.7
2017-Nov-16 23:00S 32°48' E 152°20'510.1
2017-Nov-16 22:30S 32°45' E 152°25'611.1
2017-Nov-16 22:01S 32°41' E 152°30'611.6
2017-Nov-16 21:30S 32°37' E 152°35'713.8
2017-Nov-16 20:59S 32°32' E 152°41'813.3
2017-Nov-16 20:24S 32°25' E 152°46'24315.1
2017-Nov-16 04:20S 28°28' E 153°47'516.8
2017-Nov-16 04:00S 28°23' E 153°47'817.0
2017-Nov-16 03:30S 28°14' E 153°48'816.5
2017-Nov-16 03:00S 28°06' E 153°50'816.5
2017-Nov-16 02:30S 27°58' E 153°52'1016.6
2017-Nov-16 01:55S 27°48' E 153°53'716.6
2017-Nov-16 01:31S 27°42' E 153°54'  

Dump ship's entire track history